Time;durP1;ratioP1;P1;durP2;ratioP2;P2;SDS_P1;SDS_P2;PMS_P1;PMS_P2;Temp;Humidity;BMP_temperature;BMP_pressure;BME280_temperature;BME280_humidity;BME280_pressure;Samples;Min_cycle;Max_cycle;Signal;HPM_P1;HPM_P2
2023/04/11 00:00:52;;;;;;;9.05;1.42;;;8.50;99.90;;;;;;5001969;22;20056;-59
2023/04/11 00:03:19;;;;;;;7.03;1.58;;;8.50;99.90;;;;;;5048530;28;20043;-60
2023/04/11 00:05:46;;;;;;;10.88;2.05;;;8.50;99.90;;;;;;5042904;28;20045;-60
2023/04/11 00:08:13;;;;;;;11.93;2.15;;;8.50;99.90;;;;;;5043197;28;20454;-60
2023/04/11 00:10:40;;;;;;;12.45;1.95;;;8.50;99.90;;;;;;5047547;28;20132;-60
2023/04/11 00:13:09;;;;;;;25.85;4.20;;;8.40;99.90;;;;;;5046764;28;20527;-60
2023/04/11 00:15:38;;;;;;;15.10;2.03;;;8.40;99.90;;;;;;5016069;28;20314;-62
2023/04/11 00:18:05;;;;;;;9.35;1.98;;;8.40;99.90;;;;;;5051383;28;20449;-60
2023/04/11 00:20:32;;;;;;;12.70;2.13;;;8.40;99.90;;;;;;5051128;28;20041;-60
2023/04/11 00:22:59;;;;;;;10.45;1.80;;;8.40;99.90;;;;;;5051047;28;20395;-61
2023/04/11 00:25:26;;;;;;;13.07;2.40;;;8.30;99.90;;;;;;5050775;28;20045;-60
2023/04/11 00:27:53;;;;;;;9.18;2.10;;;8.30;99.90;;;;;;5050420;28;20566;-60
2023/04/11 00:30:20;;;;;;;13.80;2.22;;;8.30;99.90;;;;;;5050691;28;20049;-60
2023/04/11 00:32:46;;;;;;;16.73;2.38;;;8.20;99.90;;;;;;5050240;28;20045;-60
2023/04/11 00:35:14;;;;;;;12.45;2.55;;;8.20;99.90;;;;;;5032912;28;20091;-60
2023/04/11 00:37:43;;;;;;;14.98;3.20;;;8.20;99.90;;;;;;5050761;28;20127;-61
2023/04/11 00:40:17;;;;;;;8.98;2.10;;;8.20;99.90;;;;;;5050233;28;20515;-61
2023/04/11 00:42:44;;;;;;;9.23;1.35;;;8.20;99.90;;;;;;5051083;28;20103;-61
2023/04/11 00:45:11;;;;;;;14.23;2.10;;;8.20;99.90;;;;;;5050999;28;20128;-59
2023/04/11 00:47:37;;;;;;;12.18;1.52;;;8.20;99.90;;;;;;5051036;28;20124;-60
2023/04/11 00:50:05;;;;;;;14.38;2.03;;;8.10;99.90;;;;;;5048624;28;20045;-61
2023/04/11 00:52:32;;;;;;;7.30;2.13;;;8.10;99.90;;;;;;5016618;28;20535;-60
2023/04/11 00:55:01;;;;;;;9.55;1.70;;;8.10;99.90;;;;;;5050158;28;20049;-60
2023/04/11 00:57:29;;;;;;;18.80;3.03;;;8.10;99.90;;;;;;5050729;28;20070;-60
2023/04/11 00:59:57;;;;;;;18.30;2.83;;;8.10;99.90;;;;;;5032537;28;20048;-61
2023/04/11 01:02:23;;;;;;;12.93;2.55;;;8.00;99.90;;;;;;5015999;28;20534;-60
2023/04/11 01:04:50;;;;;;;15.02;1.70;;;8.00;99.90;;;;;;5031740;28;20124;-60
2023/04/11 01:07:17;;;;;;;10.05;2.17;;;8.00;99.90;;;;;;5032154;28;20135;-60
2023/04/11 01:09:44;;;;;;;7.38;1.63;;;8.00;99.90;;;;;;5032912;28;20073;-60
2023/04/11 01:12:12;;;;;;;11.02;3.15;;;8.00;99.90;;;;;;5050183;28;20077;-59
2023/04/11 01:14:38;;;;;;;6.40;1.85;;;8.10;99.90;;;;;;5032325;28;20102;-60
2023/04/11 01:17:06;;;;;;;10.80;1.98;;;8.00;99.90;;;;;;5036338;28;20287;-60
2023/04/11 01:19:33;;;;;;;9.55;1.95;;;8.00;99.90;;;;;;5065066;28;20045;-60
2023/04/11 01:22:00;;;;;;;15.68;3.22;;;8.00;99.90;;;;;;5049637;28;20080;-60
2023/04/11 01:24:27;;;;;;;11.52;2.15;;;8.00;99.90;;;;;;5016394;28;20083;-60
2023/04/11 01:26:55;;;;;;;16.58;1.98;;;8.00;99.90;;;;;;5049367;28;20475;-60
2023/04/11 01:29:22;;;;;;;13.80;2.08;;;7.90;99.90;;;;;;5032071;28;20076;-60
2023/04/11 01:31:50;;;;;;;15.75;2.33;;;8.00;99.90;;;;;;5049527;28;20099;-60
2023/04/11 01:34:17;;;;;;;18.77;2.53;;;7.90;99.90;;;;;;5049523;28;20057;-60
2023/04/11 01:36:44;;;;;;;12.50;2.15;;;7.90;99.90;;;;;;4680898;28;10000093;-60
2023/04/11 01:39:10;;;;;;;16.08;2.10;;;7.90;99.90;;;;;;5029018;28;20123;-60
2023/04/11 01:41:37;;;;;;;17.52;2.03;;;7.90;99.90;;;;;;5047342;28;20052;-61
2023/04/11 01:44:04;;;;;;;8.95;2.20;;;7.90;99.90;;;;;;5031956;28;20132;-61
2023/04/11 01:46:31;;;;;;;11.70;1.88;;;7.90;99.90;;;;;;5048747;28;20061;-60
2023/04/11 01:48:59;;;;;;;12.77;2.08;;;7.90;99.90;;;;;;5048917;28;20063;-60
2023/04/11 01:51:27;;;;;;;16.20;1.70;;;7.90;99.90;;;;;;5031829;28;20049;-59
2023/04/11 01:53:54;;;;;;;13.77;2.63;;;7.90;99.90;;;;;;5049889;28;20484;-60
2023/04/11 01:56:21;;;;;;;9.45;2.33;;;7.90;99.90;;;;;;5049635;28;20486;-62
2023/04/11 01:58:47;;;;;;;7.57;2.15;;;7.90;99.90;;;;;;5048782;28;20099;-61
2023/04/11 02:01:18;;;;;;;25.15;2.22;;;7.90;99.90;;;;;;5049079;28;20461;-61
2023/04/11 02:03:45;;;;;;;15.07;2.50;;;7.90;99.90;;;;;;5031416;28;20053;-60
2023/04/11 02:06:12;;;;;;;11.82;3.67;;;7.90;99.90;;;;;;5049217;28;20427;-60
2023/04/11 02:08:38;;;;;;;16.75;2.20;;;7.80;99.90;;;;;;5031249;28;20238;-60
2023/04/11 02:11:06;;;;;;;17.25;1.80;;;7.80;99.90;;;;;;5049252;28;20041;-60
2023/04/11 02:13:34;;;;;;;12.90;2.45;;;7.80;99.90;;;;;;5049548;28;20061;-60
2023/04/11 02:16:08;;;;;;;10.55;1.98;;;7.80;99.90;;;;;;5049086;28;20044;-59
2023/04/11 02:18:35;;;;;;;8.60;2.00;;;7.80;99.90;;;;;;5030824;28;20073;-60
2023/04/11 02:21:02;;;;;;;9.57;1.63;;;7.80;99.90;;;;;;5048850;28;20128;-58
2023/04/11 02:23:28;;;;;;;12.40;2.15;;;7.70;99.90;;;;;;5048534;28;20045;-60
2023/04/11 02:25:55;;;;;;;8.07;1.88;;;7.70;99.90;;;;;;5048884;28;20128;-60
2023/04/11 02:28:22;;;;;;;17.77;2.70;;;7.80;99.90;;;;;;5048712;28;20061;-61
2023/04/11 02:30:49;;;;;;;16.60;3.03;;;7.70;99.90;;;;;;5048733;28;20063;-61
2023/04/11 02:33:16;;;;;;;14.88;3.30;;;7.70;99.90;;;;;;5048786;28;20128;-60
2023/04/11 02:35:43;;;;;;;23.83;2.03;;;7.70;99.90;;;;;;5049335;28;20314;-60
2023/04/11 02:38:10;;;;;;;12.90;2.38;;;7.70;99.90;;;;;;5013174;28;20067;-59
2023/04/11 02:40:37;;;;;;;12.07;2.42;;;7.70;99.90;;;;;;5048537;28;20482;-62
2023/04/11 02:43:03;;;;;;;13.98;2.67;;;7.70;99.90;;;;;;5048011;28;20094;-60
2023/04/11 02:45:30;;;;;;;12.68;2.53;;;7.70;99.90;;;;;;5048511;28;20447;-62
2023/04/11 02:47:57;;;;;;;19.13;2.45;;;7.70;99.90;;;;;;5048271;28;20071;-60
2023/04/11 02:50:27;;;;;;;10.43;1.88;;;7.70;99.90;;;;;;5047917;28;20049;-60
2023/04/11 02:52:54;;;;;;;15.20;2.58;;;7.70;99.90;;;;;;5048339;28;20044;-60
2023/04/11 02:55:23;;;;;;;14.57;2.08;;;7.70;99.90;;;;;;5048046;28;20057;-60
2023/04/11 02:57:50;;;;;;;12.75;2.25;;;7.70;99.90;;;;;;5047522;28;20077;-60
2023/04/11 03:00:20;;;;;;;12.60;1.85;;;7.60;99.90;;;;;;5047353;28;20419;-60
2023/04/11 03:02:48;;;;;;;8.55;2.75;;;7.60;99.90;;;;;;5047824;28;20354;-61
2023/04/11 03:05:15;;;;;;;19.65;2.25;;;7.60;99.90;;;;;;5047991;28;20044;-60
2023/04/11 03:07:43;;;;;;;10.10;2.55;;;7.60;99.90;;;;;;5048015;28;20062;-61
2023/04/11 03:10:09;;;;;;;8.77;1.90;;;7.60;99.90;;;;;;5048226;28;20059;-60
2023/04/11 03:12:36;;;;;;;13.27;2.33;;;7.60;99.90;;;;;;5047842;28;20471;-60
2023/04/11 03:15:03;;;;;;;13.65;2.40;;;7.50;99.90;;;;;;5047770;28;20171;-62
2023/04/11 03:17:30;;;;;;;7.85;1.80;;;7.50;99.90;;;;;;5047868;28;20487;-60
2023/04/11 03:19:57;;;;;;;17.40;2.67;;;7.50;99.90;;;;;;5047433;28;20080;-60
2023/04/11 03:22:24;;;;;;;9.52;2.65;;;7.50;99.90;;;;;;5029732;28;20049;-61
2023/04/11 03:24:50;;;;;;;13.32;1.95;;;7.50;99.90;;;;;;5047617;28;20074;-61
2023/04/11 03:27:17;;;;;;;8.98;2.30;;;7.50;99.90;;;;;;5048303;28;20054;-60
2023/04/11 03:29:44;;;;;;;15.18;2.58;;;7.50;99.90;;;;;;5047032;28;20049;-61
2023/04/11 03:32:11;;;;;;;16.48;2.22;;;7.50;99.90;;;;;;5030058;28;20076;-61
2023/04/11 03:34:37;;;;;;;11.00;2.80;;;7.50;99.90;;;;;;5029784;28;20385;-61
2023/04/11 03:37:04;;;;;;;16.15;2.17;;;7.50;99.90;;;;;;5047505;28;20136;-60
2023/04/11 03:39:31;;;;;;;15.27;3.65;;;7.50;99.90;;;;;;5047528;28;20511;-60
2023/04/11 03:41:58;;;;;;;9.63;2.03;;;7.40;99.90;;;;;;5047313;28;20102;-60
2023/04/11 03:44:24;;;;;;;9.02;1.70;;;7.40;99.90;;;;;;5047224;28;20041;-60
2023/04/11 03:46:51;;;;;;;14.18;3.95;;;7.40;99.90;;;;;;5047848;28;20287;-60
2023/04/11 03:49:18;;;;;;;14.20;1.77;;;7.40;99.90;;;;;;5047802;28;20135;-60
2023/04/11 03:51:45;;;;;;;10.77;1.95;;;7.40;99.90;;;;;;5026536;28;20041;-61
2023/04/11 03:54:12;;;;;;;19.02;4.20;;;7.40;99.90;;;;;;5044538;28;20114;-61
2023/04/11 03:56:38;;;;;;;10.98;1.80;;;7.40;99.90;;;;;;5047719;28;20041;-61
2023/04/11 03:59:05;;;;;;;11.57;1.55;;;7.40;99.90;;;;;;5046689;28;20052;-61
2023/04/11 04:01:32;;;;;;;19.17;2.20;;;7.40;99.90;;;;;;5046671;28;20079;-61
2023/04/11 04:03:59;;;;;;;12.00;2.30;;;7.30;99.90;;;;;;5045283;28;20067;-61
2023/04/11 04:06:27;;;;;;;12.50;2.78;;;7.30;99.90;;;;;;5046126;28;20044;-61
2023/04/11 04:08:54;;;;;;;11.55;1.38;;;7.30;99.90;;;;;;5047674;28;20049;-61
2023/04/11 04:11:20;;;;;;;14.02;2.10;;;7.30;99.90;;;;;;5047243;28;20068;-61
2023/04/11 04:13:47;;;;;;;9.77;1.92;;;7.30;99.90;;;;;;5047735;28;20049;-60
2023/04/11 04:16:16;;;;;;;12.75;1.77;;;7.20;99.90;;;;;;5047166;28;20088;-60
2023/04/11 04:18:43;;;;;;;11.13;1.73;;;7.20;99.90;;;;;;5046825;28;20102;-61
2023/04/11 04:21:10;;;;;;;7.93;1.73;;;7.20;99.90;;;;;;5046799;28;20085;-60
2023/04/11 04:23:38;;;;;;;17.83;3.30;;;7.20;99.90;;;;;;5046429;28;20053;-60
2023/04/11 04:26:05;;;;;;;11.07;1.80;;;7.20;99.90;;;;;;5047252;28;20053;-59
2023/04/11 04:28:32;;;;;;;10.40;1.83;;;7.20;99.90;;;;;;5029167;28;20049;-59
2023/04/11 04:31:00;;;;;;;12.57;1.75;;;7.20;99.90;;;;;;5047619;28;20135;-59
2023/04/11 04:33:27;;;;;;;12.63;1.90;;;7.20;99.90;;;;;;5028830;28;20048;-59
2023/04/11 04:35:58;;;;;;;8.70;2.30;;;7.10;99.90;;;;;;5032868;28;20102;-60
2023/04/11 04:38:27;;;;;;;7.78;1.70;;;7.10;99.90;;;;;;5047015;28;20056;-59
2023/04/11 04:40:54;;;;;;;6.10;1.40;;;7.10;99.90;;;;;;5029136;28;20424;-60
2023/04/11 04:43:22;;;;;;;12.57;1.70;;;7.00;99.90;;;;;;5029651;28;20303;-60
2023/04/11 04:45:49;;;;;;;12.70;2.50;;;7.00;99.90;;;;;;5047515;28;20045;-60
2023/04/11 04:48:16;;;;;;;12.38;1.92;;;7.00;99.90;;;;;;5046562;28;20525;-59
2023/04/11 04:50:44;;;;;;;15.02;2.20;;;7.00;99.90;;;;;;5047052;28;20511;-60
2023/04/11 04:53:11;;;;;;;13.55;1.95;;;7.00;99.90;;;;;;5047087;28;20126;-59
2023/04/11 04:55:38;;;;;;;12.13;1.70;;;7.00;99.90;;;;;;5047113;28;20084;-60
2023/04/11 04:58:05;;;;;;;14.52;2.53;;;7.00;99.90;;;;;;5046627;28;20045;-60
2023/04/11 05:00:32;;;;;;;14.52;2.17;;;7.10;99.90;;;;;;5047160;28;20103;-60
2023/04/11 05:02:59;;;;;;;17.27;1.75;;;6.90;99.90;;;;;;5049714;28;20084;-60
2023/04/11 05:05:26;;;;;;;9.32;1.60;;;6.90;99.90;;;;;;5048274;28;20049;-60
2023/04/11 05:07:53;;;;;;;10.48;1.58;;;6.90;99.90;;;;;;5050052;28;20094;-59
2023/04/11 05:10:20;;;;;;;14.82;1.80;;;6.90;99.90;;;;;;5050464;28;20051;-60
2023/04/11 05:12:46;;;;;;;9.90;1.67;;;6.90;99.90;;;;;;5032181;28;20072;-60
2023/04/11 05:15:14;;;;;;;8.65;1.50;;;6.90;99.90;;;;;;5049745;28;20080;-60
2023/04/11 05:17:41;;;;;;;5.82;1.85;;;6.90;99.90;;;;;;5049905;28;20045;-60
2023/04/11 05:20:09;;;;;;;18.73;2.45;;;6.90;99.90;;;;;;5048959;28;20080;-60
2023/04/11 05:22:36;;;;;;;17.38;2.33;;;6.90;99.90;;;;;;5019251;28;20137;-60
2023/04/11 05:25:04;;;;;;;15.05;2.13;;;6.90;99.90;;;;;;5049821;28;20114;-60
2023/04/11 05:27:31;;;;;;;19.10;3.30;;;6.90;99.90;;;;;;5049698;28;20131;-64
2023/04/11 05:29:59;;;;;;;13.43;2.25;;;6.90;99.90;;;;;;5049463;28;20160;-60
2023/04/11 05:32:26;;;;;;;11.90;3.67;;;7.00;99.90;;;;;;5050460;28;20079;-60
2023/04/11 05:34:53;;;;;;;19.48;2.75;;;6.90;99.90;;;;;;5049710;28;20084;-61
2023/04/11 05:37:25;;;;;;;12.10;1.92;;;6.90;99.90;;;;;;5050706;28;20132;-61
2023/04/11 05:39:52;;;;;;;17.30;3.17;;;6.90;99.90;;;;;;5049943;28;20041;-60
2023/04/11 05:42:18;;;;;;;18.45;2.63;;;7.00;99.90;;;;;;5037349;28;20526;-61
2023/04/11 05:44:45;;;;;;;15.40;1.70;;;6.90;99.90;;;;;;5048022;28;20047;-60
2023/04/11 05:47:12;;;;;;;13.70;2.30;;;6.90;99.90;;;;;;5049414;28;20136;-60
2023/04/11 05:49:38;;;;;;;13.32;2.17;;;7.00;99.90;;;;;;5048518;28;20055;-60
2023/04/11 05:52:05;;;;;;;10.90;2.33;;;7.00;99.90;;;;;;4697496;28;10000420;-60
2023/04/11 05:54:35;;;;;;;13.20;2.03;;;7.00;99.90;;;;;;5045503;28;20080;-60
2023/04/11 05:57:02;;;;;;;13.00;1.60;;;7.00;99.90;;;;;;5045818;28;20265;-61
2023/04/11 05:59:30;;;;;;;18.00;2.22;;;7.10;99.90;;;;;;5044531;28;20090;-60
2023/04/11 06:01:57;;;;;;;11.95;2.15;;;7.00;99.90;;;;;;5045434;28;20133;-61
2023/04/11 06:04:24;;;;;;;17.83;2.67;;;7.10;99.90;;;;;;5044751;28;20045;-61
2023/04/11 06:06:52;;;;;;;14.95;2.38;;;7.10;99.90;;;;;;5027537;28;20044;-60
2023/04/11 06:09:19;;;;;;;10.23;2.30;;;7.20;99.90;;;;;;5027255;28;20052;-60
2023/04/11 06:11:46;;;;;;;14.40;2.13;;;7.20;99.90;;;;;;5047191;28;20147;-60
2023/04/11 06:14:13;;;;;;;19.75;3.00;;;7.20;99.90;;;;;;5045449;28;20495;-60
2023/04/11 06:16:40;;;;;;;18.30;3.10;;;7.30;99.90;;;;;;5045140;28;20128;-61
2023/04/11 06:19:07;;;;;;;18.85;2.75;;;7.30;99.90;;;;;;5045749;28;20243;-60
2023/04/11 06:21:33;;;;;;;21.27;2.75;;;7.30;99.90;;;;;;5045119;28;20523;-60
2023/04/11 06:24:06;;;;;;;10.95;2.20;;;7.40;99.90;;;;;;5026904;28;20327;-59
2023/04/11 06:26:33;;;;;;;14.50;1.83;;;7.40;99.90;;;;;;5042848;28;20132;-62
2023/04/11 06:29:02;;;;;;;18.33;2.25;;;7.40;99.90;;;;;;5055847;28;20083;-60
2023/04/11 06:31:31;;;;;;;13.18;2.88;;;7.50;99.90;;;;;;5045000;28;20048;-60
2023/04/11 06:34:00;;;;;;;14.98;2.20;;;7.50;99.90;;;;;;5045334;28;20091;-61
2023/04/11 06:36:27;;;;;;;10.73;1.92;;;7.50;99.90;;;;;;5044808;28;20041;-61
2023/04/11 06:38:53;;;;;;;13.40;2.65;;;7.60;99.90;;;;;;5044948;28;20053;-60
2023/04/11 06:41:20;;;;;;;10.02;2.45;;;7.60;99.90;;;;;;5059482;28;20053;-61
2023/04/11 06:43:47;;;;;;;10.45;1.33;;;7.60;99.90;;;;;;5043164;28;20171;-61
2023/04/11 06:46:14;;;;;;;20.00;2.63;;;7.70;99.90;;;;;;5046741;28;20073;-61
2023/04/11 06:48:41;;;;;;;10.38;1.98;;;7.70;99.90;;;;;;5047328;28;20547;-60
2023/04/11 06:51:11;;;;;;;11.90;2.10;;;7.80;99.90;;;;;;5055090;28;20132;-60
2023/04/11 06:53:38;;;;;;;8.73;2.38;;;7.80;99.90;;;;;;5047175;28;20094;-60
2023/04/11 06:56:05;;;;;;;15.20;1.77;;;7.90;99.90;;;;;;5030274;28;20059;-61
2023/04/11 06:58:32;;;;;;;6.95;2.10;;;7.90;99.90;;;;;;5046441;28;20733;-61
2023/04/11 07:01:02;;;;;;;11.77;2.22;;;8.00;99.90;;;;;;5044289;28;20163;-60
2023/04/11 07:03:31;;;;;;;13.68;3.40;;;8.00;99.90;;;;;;5044175;28;20119;-61
2023/04/11 07:06:01;;;;;;;7.70;1.60;;;8.10;99.90;;;;;;5031567;28;20052;-60
2023/04/11 07:08:27;;;;;;;10.38;1.75;;;8.10;99.90;;;;;;5044209;28;20080;-61
2023/04/11 07:10:56;;;;;;;14.57;2.50;;;8.10;99.90;;;;;;5044245;28;20045;-61
2023/04/11 07:13:26;;;;;;;12.10;2.55;;;8.20;99.90;;;;;;5043988;28;20052;-59
2023/04/11 07:15:55;;;;;;;5.30;1.10;;;8.30;99.90;;;;;;5045024;28;20048;-61
2023/04/11 07:18:22;;;;;;;11.55;1.50;;;8.30;99.90;;;;;;5043412;28;20098;-61
2023/04/11 07:20:52;;;;;;;8.30;2.00;;;8.40;99.90;;;;;;5043881;28;20052;-60
2023/04/11 07:23:20;;;;;;;14.43;1.60;;;8.40;99.90;;;;;;5043465;28;20091;-59
2023/04/11 07:25:49;;;;;;;11.43;2.30;;;8.50;99.90;;;;;;5043982;28;20049;-61
2023/04/11 07:28:16;;;;;;;7.78;2.15;;;8.60;99.90;;;;;;5043677;28;20123;-60
2023/04/11 07:30:43;;;;;;;12.45;1.27;;;8.70;99.90;;;;;;5032898;28;20527;-61
2023/04/11 07:33:10;;;;;;;13.63;2.85;;;8.70;99.90;;;;;;5041051;28;20055;-61
2023/04/11 07:35:37;;;;;;;8.40;1.75;;;8.80;99.90;;;;;;5043984;28;20253;-60
2023/04/11 07:38:04;;;;;;;13.73;1.83;;;8.90;99.90;;;;;;5044039;28;20045;-61
2023/04/11 07:40:31;;;;;;;16.80;2.72;;;9.00;99.90;;;;;;5044116;28;20041;-61
2023/04/11 07:43:00;;;;;;;12.23;1.95;;;9.00;99.90;;;;;;5026603;28;20102;-60
2023/04/11 07:45:28;;;;;;;26.00;5.25;;;9.10;99.90;;;;;;5049034;28;20037;-61
2023/04/11 07:47:55;;;;;;;11.48;2.90;;;9.20;99.90;;;;;;5026081;28;20128;-60
2023/04/11 07:50:22;;;;;;;13.02;2.30;;;9.30;99.90;;;;;;5044851;28;20065;-60
2023/04/11 07:52:50;;;;;;;7.95;1.52;;;9.20;99.90;;;;;;5044232;28;20286;-59
2023/04/11 07:55:16;;;;;;;7.30;1.92;;;9.30;99.90;;;;;;5044617;28;20194;-59
2023/04/11 07:57:43;;;;;;;10.68;1.63;;;9.30;99.90;;;;;;5044404;28;20102;-59
2023/04/11 08:00:19;;;;;;;12.30;2.00;;;9.30;99.90;;;;;;5025972;28;20064;-59
2023/04/11 08:02:45;;;;;;;7.30;1.50;;;9.30;99.90;;;;;;5043949;28;20048;-61
2023/04/11 08:05:13;;;;;;;10.73;1.73;;;9.40;99.90;;;;;;5044217;28;20057;-60
2023/04/11 08:07:40;;;;;;;15.10;2.38;;;9.40;99.90;;;;;;5044493;28;20045;-61
2023/04/11 08:10:07;;;;;;;10.95;1.95;;;9.50;99.90;;;;;;5044284;28;20140;-59
2023/04/11 08:12:34;;;;;;;10.20;1.70;;;9.50;99.90;;;;;;5044165;28;20052;-61
2023/04/11 08:15:01;;;;;;;17.23;1.63;;;9.60;99.90;;;;;;5044833;28;20055;-60
2023/04/11 08:17:28;;;;;;;13.75;3.22;;;9.60;99.90;;;;;;5049143;28;20124;-60
2023/04/11 08:19:56;;;;;;;14.15;1.83;;;9.70;99.90;;;;;;5009906;28;20139;-60
2023/04/11 08:22:23;;;;;;;13.02;1.60;;;9.70;99.90;;;;;;5044112;28;20091;-62
2023/04/11 08:24:50;;;;;;;12.32;1.80;;;9.70;99.90;;;;;;5043339;28;20076;-61
2023/04/11 08:27:16;;;;;;;7.47;1.35;;;9.80;99.90;;;;;;5026504;28;20124;-59
2023/04/11 08:29:43;;;;;;;11.52;2.05;;;9.80;99.90;;;;;;5043236;28;20552;-60
2023/04/11 08:32:10;;;;;;;9.18;2.33;;;9.90;99.90;;;;;;5050912;28;20148;-60
2023/04/11 08:34:36;;;;;;;11.50;3.38;;;9.90;99.90;;;;;;5042964;28;20518;-60
2023/04/11 08:37:03;;;;;;;17.55;1.92;;;10.10;99.90;;;;;;5045674;28;20123;-60
2023/04/11 08:39:30;;;;;;;11.43;2.17;;;10.20;99.90;;;;;;5047292;28;20457;-58
2023/04/11 08:41:57;;;;;;;13.98;2.55;;;10.20;99.90;;;;;;5047287;28;20049;-61
2023/04/11 08:44:24;;;;;;;15.60;2.33;;;10.30;99.90;;;;;;5047563;28;20049;-60
2023/04/11 08:46:50;;;;;;;12.85;2.25;;;10.30;99.90;;;;;;5046997;28;20047;-60
2023/04/11 08:49:17;;;;;;;13.23;1.90;;;10.40;99.90;;;;;;5033336;28;20083;-60
2023/04/11 08:51:44;;;;;;;10.27;1.92;;;10.40;99.90;;;;;;5047206;28;20047;-61
2023/04/11 08:54:11;;;;;;;17.08;2.22;;;10.50;99.90;;;;;;5047230;28;20121;-60
2023/04/11 08:56:40;;;;;;;13.38;1.58;;;10.60;99.90;;;;;;5013471;28;20055;-59
2023/04/11 08:59:07;;;;;;;9.27;2.17;;;10.60;99.90;;;;;;5047041;28;20131;-59
2023/04/11 09:01:36;;;;;;;14.93;2.10;;;10.60;99.90;;;;;;5047196;28;20057;-60
2023/04/11 09:04:04;;;;;;;19.30;1.73;;;10.50;99.90;;;;;;5047937;28;20111;-59
2023/04/11 09:06:32;;;;;;;14.00;1.80;;;10.50;99.90;;;;;;5028730;28;20064;-60
2023/04/11 09:09:00;;;;;;;15.50;2.05;;;10.60;99.90;;;;;;5046464;28;20045;-60
2023/04/11 09:11:27;;;;;;;9.82;1.88;;;10.80;99.90;;;;;;5045327;28;20064;-60
2023/04/11 09:14:07;;;;;;;15.02;2.00;;;11.00;99.90;;;;;;5027671;28;20055;-60
2023/04/11 09:16:34;;;;;;;18.33;2.35;;;11.10;99.90;;;;;;5045563;28;20914;-60
2023/04/11 09:19:01;;;;;;;6.75;1.30;;;11.20;99.90;;;;;;5045464;28;20060;-62
2023/04/11 09:21:28;;;;;;;12.30;1.70;;;11.40;99.90;;;;;;5045612;28;20057;-60
2023/04/11 09:24:14;;;;;;;9.35;1.52;;;11.40;99.90;;;;;;5045488;28;20053;-60
2023/04/11 09:26:40;;;;;;;13.15;3.00;;;11.30;99.90;;;;;;5045581;28;20627;-60
2023/04/11 09:29:07;;;;;;;9.07;2.03;;;11.30;99.90;;;;;;5045682;28;20140;-62
2023/04/11 09:31:41;;;;;;;8.50;1.30;;;11.50;99.90;;;;;;5045111;28;20045;-60
2023/04/11 09:34:09;;;;;;;13.70;2.28;;;11.80;99.90;;;;;;5044274;28;20051;-59
2023/04/11 09:36:37;;;;;;;13.13;2.35;;;12.00;99.90;;;;;;5027360;28;20045;-60
2023/04/11 09:39:27;;;;;;;13.40;2.10;;;12.00;99.90;;;;;;5045236;28;20625;-60
2023/04/11 09:41:54;;;;;;;20.67;2.80;;;12.30;99.90;;;;;;5044538;28;20674;-60
2023/04/11 09:44:34;;;;;;;12.70;1.73;;;12.40;99.90;;;;;;5044893;28;20135;-58
2023/04/11 09:47:00;;;;;;;10.45;1.70;;;12.60;99.90;;;;;;5027212;28;20045;-61
2023/04/11 09:49:28;;;;;;;8.05;1.52;;;12.90;99.90;;;;;;5045235;28;20050;-60
2023/04/11 09:51:55;;;;;;;13.15;2.67;;;13.30;99.90;;;;;;5045756;28;20087;-59
2023/04/11 09:54:22;;;;;;;8.05;1.30;;;13.20;99.90;;;;;;5009808;28;20136;-59
2023/04/11 09:56:49;;;;;;;15.88;1.90;;;13.10;99.90;;;;;;5027148;28;20053;-60
2023/04/11 09:59:16;;;;;;;8.98;2.05;;;13.00;99.90;;;;;;5042783;28;20041;-60
2023/04/11 10:01:42;;;;;;;8.52;1.20;;;13.10;99.90;;;;;;5045036;28;20144;-60
2023/04/11 10:04:10;;;;;;;9.18;1.45;;;13.00;99.90;;;;;;5025325;28;20056;-59
2023/04/11 10:07:01;;;;;;;8.20;1.80;;;13.00;99.90;;;;;;5044553;28;20045;-60
2023/04/11 10:09:31;;;;;;;5.78;0.98;;;12.90;99.90;;;;;;5012515;28;20049;-59
2023/04/11 10:11:58;;;;;;;12.20;2.67;;;12.90;99.90;;;;;;5044726;28;20142;-60
2023/04/11 10:14:36;;;;;;;9.02;2.13;;;12.90;99.90;;;;;;5044272;28;20044;-60
2023/04/11 10:17:17;;;;;;;4.03;1.30;;;13.00;99.90;;;;;;5044415;28;20045;-60
2023/04/11 10:19:50;;;;;;;7.28;1.23;;;13.10;99.90;;;;;;5045479;28;20106;-60
2023/04/11 10:22:39;;;;;;;7.30;1.23;;;13.10;99.90;;;;;;5026925;28;20096;-60
2023/04/11 10:25:20;;;;;;;11.20;1.23;;;13.20;99.90;;;;;;5041524;28;20049;-61
2023/04/11 10:27:49;;;;;;;5.28;1.20;;;13.20;99.90;;;;;;5038635;28;20045;-61
2023/04/11 10:30:16;;;;;;;6.47;1.08;;;13.20;99.90;;;;;;5044157;28;20041;-59
2023/04/11 10:33:08;;;;;;;9.65;1.50;;;13.00;99.90;;;;;;5044418;28;20049;-60
2023/04/11 10:35:35;;;;;;;11.50;1.33;;;13.20;99.90;;;;;;5042989;28;20071;-61
2023/04/11 10:38:02;;;;;;;7.53;1.50;;;13.20;99.90;;;;;;5030009;28;20049;-60
2023/04/11 10:40:29;;;;;;;11.57;2.22;;;13.00;99.90;;;;;;5042943;28;20499;-58
2023/04/11 10:42:56;;;;;;;8.48;1.40;;;13.00;99.90;;;;;;5042999;28;20072;-60
2023/04/11 10:45:27;;;;;;;4.68;1.15;;;12.90;99.90;;;;;;5043000;28;20051;-60
2023/04/11 10:48:06;;;;;;;4.85;1.35;;;12.80;99.90;;;;;;5042610;28;20048;-59
2023/04/11 10:50:36;;;;;;;6.13;1.40;;;12.80;99.90;;;;;;5028146;28;20057;-60
2023/04/11 10:53:05;;;;;;;7.10;1.42;;;12.80;99.90;;;;;;5042821;28;20045;-60
2023/04/11 10:55:49;;;;;;;10.02;1.17;;;12.80;99.90;;;;;;5043283;28;20060;-60
2023/04/11 10:58:21;;;;;;;9.73;1.80;;;12.70;99.90;;;;;;5042163;28;20057;-60
2023/04/11 11:00:48;;;;;;;4.15;1.08;;;12.80;99.90;;;;;;5027273;28;20088;-61
2023/04/11 11:03:25;;;;;;;14.10;2.28;;;12.70;99.90;;;;;;5045666;28;20076;-60
2023/04/11 11:06:00;;;;;;;9.45;1.30;;;12.80;99.90;;;;;;5045604;28;20041;-62
2023/04/11 11:08:31;;;;;;;3.13;0.98;;;12.80;99.90;;;;;;5030775;28;20048;-60
2023/04/11 11:11:02;;;;;;;4.90;1.13;;;12.90;99.90;;;;;;5045526;28;20080;-60
2023/04/11 11:13:48;;;;;;;13.73;1.80;;;12.90;99.90;;;;;;5044867;28;20227;-60
2023/04/11 11:16:19;;;;;;;4.68;1.20;;;13.10;99.90;;;;;;5044620;28;20095;-61
2023/04/11 11:18:50;;;;;;;8.52;1.60;;;13.20;99.90;;;;;;5031566;28;20045;-61
2023/04/11 11:21:20;;;;;;;9.10;1.88;;;13.20;99.90;;;;;;5045568;28;20045;-60
2023/04/11 11:23:57;;;;;;;7.00;1.70;;;13.10;99.90;;;;;;5045154;28;20048;-61
2023/04/11 11:26:45;;;;;;;8.52;2.05;;;13.10;99.90;;;;;;5044506;28;20068;-60
2023/04/11 11:29:12;;;;;;;4.68;1.40;;;13.10;99.90;;;;;;5028959;28;20392;-61
2023/04/11 11:31:41;;;;;;;9.45;1.55;;;13.10;99.90;;;;;;5013898;28;20052;-61
2023/04/11 11:34:10;;;;;;;5.25;1.02;;;13.10;99.90;;;;;;5045717;28;20041;-60
2023/04/11 11:36:49;;;;;;;6.45;1.50;;;13.30;99.90;;;;;;5045514;28;20056;-62
2023/04/11 11:39:17;;;;;;;6.50;1.38;;;13.20;99.90;;;;;;5045192;28;20055;-61
2023/04/11 11:41:47;;;;;;;10.38;1.30;;;13.30;99.90;;;;;;5029026;28;20045;-61
2023/04/11 11:44:24;;;;;;;4.93;1.33;;;13.40;99.90;;;;;;5045395;28;20386;-60
2023/04/11 11:47:16;;;;;;;8.57;2.15;;;13.50;99.90;;;;;;5044465;28;20076;-60
2023/04/11 11:49:50;;;;;;;10.88;2.05;;;13.50;99.90;;;;;;5045002;28;20126;-61
2023/04/11 11:52:33;;;;;;;12.90;2.05;;;13.50;99.90;;;;;;5044393;28;20063;-61
2023/04/11 11:55:02;;;;;;;5.53;1.33;;;13.60;99.90;;;;;;5028629;28;20111;-58
2023/04/11 11:57:29;;;;;;;7.20;1.55;;;13.50;99.90;;;;;;5027902;28;20103;-59
2023/04/11 11:59:56;;;;;;;12.77;1.65;;;13.60;99.90;;;;;;5045501;28;20052;-60
2023/04/11 12:02:26;;;;;;;10.27;2.22;;;13.60;99.90;;;;;;5045733;28;20049;-59
2023/04/11 12:05:02;;;;;;;10.00;2.03;;;13.60;99.90;;;;;;5045354;28;20519;-61
2023/04/11 12:07:33;;;;;;;9.70;2.17;;;13.50;99.90;;;;;;5026082;28;20052;-59
2023/04/11 12:10:07;;;;;;;10.48;1.60;;;13.50;99.90;;;;;;5046306;28;20512;-59
2023/04/11 12:12:35;;;;;;;10.70;2.15;;;13.50;99.90;;;;;;5049745;28;20411;-60
2023/04/11 12:15:12;;;;;;;11.55;2.35;;;13.50;99.90;;;;;;5049798;28;20048;-61
2023/04/11 12:17:39;;;;;;;6.65;2.08;;;13.60;99.90;;;;;;5049763;28;20132;-60
2023/04/11 12:20:07;;;;;;;16.42;2.70;;;13.60;99.90;;;;;;5062897;28;20045;-60
2023/04/11 12:22:34;;;;;;;12.68;2.55;;;13.70;99.90;;;;;;5049678;28;20128;-60
2023/04/11 12:25:10;;;;;;;17.77;2.35;;;13.80;99.90;;;;;;5050162;28;20064;-59
2023/04/11 12:27:39;;;;;;;20.80;2.35;;;13.80;99.90;;;;;;5031915;28;20135;-61
2023/04/11 12:30:15;;;;;;;10.10;2.08;;;13.70;99.90;;;;;;5047456;28;20528;-61
2023/04/11 12:32:43;;;;;;;6.20;1.95;;;13.60;99.90;;;;;;5016496;28;20045;-59
2023/04/11 12:35:10;;;;;;;13.38;2.63;;;13.50;99.90;;;;;;5050004;28;20045;-60
2023/04/11 12:37:37;;;;;;;6.47;1.60;;;13.30;99.90;;;;;;5049023;28;20640;-60
2023/04/11 12:40:08;;;;;;;12.90;2.72;;;13.10;99.90;;;;;;5050522;28;20071;-60
2023/04/11 12:42:35;;;;;;;17.17;2.88;;;13.10;99.90;;;;;;5050970;28;20045;-61
2023/04/11 12:45:11;;;;;;;9.55;2.20;;;13.10;99.90;;;;;;5033425;28;20060;-61
2023/04/11 12:47:38;;;;;;;11.60;2.40;;;13.00;99.90;;;;;;5050996;28;20412;-61
2023/04/11 12:50:05;;;;;;;12.88;2.28;;;13.10;99.90;;;;;;5033249;28;20192;-59
2023/04/11 12:52:33;;;;;;;11.73;1.92;;;13.20;99.90;;;;;;5050940;28;20097;-61